Terminal Aerodrome Forecast
Issued by NWS

Home | Current Version | Previous Version | Text Only | Print | Product List | Glossary On
Versions: 1 2 3 4 5 6 7 8 9 10 11 12 13 14
000
FTUS46 KSEW 262328
TAFPAE
TAF
KPAE 262328Z 2700/2724 35005KT P6SM VCSH OVC035
      TEMPO 2700/2704 5SM -RA BR OVC025
     FM270700 21007KT P6SM OVC019=

USA.gov is the U.S. government's official web portal to all federal, state and local government web resources and services.